Terminal Aerodrome Forecast
Issued by NWS

Home | Current Version | Previous Version | Text Only | Print | Product List | Glossary On
Versions: 1 2 3 4 5 6 7 8 9 10 11 12 13 14 15 16 17
000
FTUS41 KGYX 010523
TAFHIE
TAF
KHIE 010523Z 0106/0206 00000KT P6SM SCT007 BKN015
      TEMPO 0106/0110 3SM BR BKN007
     FM011400 VRB03KT P6SM BKN035=

USA.gov is the U.S. government's official web portal to all federal, state and local government web resources and services.